M I D A S
Marine Information and Data Acquisition System
Tripno 1890 of the Zeeleeuw from 2010-05-31 07:21:00 to 2010-05-31 11:38:17
Back to CruiseResearch ActivitiesStationsMapUnderway DataData graphs

EquipmentUnitsComments
TimeDGPSUTC
LatitudeDGPSDM.mWGS84
LongitudeDGPSDM.mWGS84
SpeedMeteo Stationm/sRelative wind speed
DirectionMeteo StationdegRelative wind direction
TemperatureMeteo Stationdeg CelciusAir temperature
PressureMeteo StationPaAtmospheric pressure
HumidityMeteo Station%Relative humidity
Missing or incorrect values are displayed as -999
Metereological data collected by the RV Zeeleeuw from 2010-05-31 06:51:01 to 2010-05-31 11:47:31
Time Latitude Longitude Speed Direction Temperature Pressure Humidity
2010-05-31 06:52 51°13.661 2°55.959 5.9 27 12.1 101460 42
2010-05-31 06:53 51°13.675 2°55.891 8.5 21 12.1 101470 40
2010-05-31 06:54 51°13.715 2°55.773 9.1 27 12 101460 41
2010-05-31 06:55 51°13.775 2°55.678 7.5 27 12 101470 41
2010-05-31 06:56 51°13.829 2°55.65 8.3 27 12.1 101460 41
2010-05-31 06:57 51°13.905 2°55.618 7.6 26 12.2 101460 40
2010-05-31 06:58 51°13.957 2°55.621 9.2 26 12.2 101460 41
2010-05-31 06:59 51°13.964 2°55.629 7.9 31 12.1 101460 40
2010-05-31 07:00 51°13.949 2°55.629 9.4 21 12.1 101460 40
2010-05-31 07:01 51°13.955 2°55.583 10.1 344 12 101450 41
2010-05-31 07:02 51°14.036 2°55.497 13.5 331 12 101440 41
2010-05-31 07:03 51°14.168 2°55.382 12.2 332 12 101450 40
2010-05-31 07:04 51°14.316 2°55.223 13.6 334 12.1 101440 40
2010-05-31 07:05 51°14.473 2°55.062 13.7 333 12.1 101450 41
2010-05-31 07:06 51°14.618 2°54.835 12.9 340 12 101450 40
2010-05-31 07:07 51°14.62 2°54.486 9.8 1 12 101430 41
2010-05-31 07:08 51°14.469 2°54.196 9.7 7 12 101460 41
2010-05-31 07:09 51°14.324 2°53.875 8.7 6 12 101470 42
2010-05-31 07:10 51°14.185 2°53.562 9 7 12 101460 41
2010-05-31 07:11 51°14.037 2°53.241 8.6 6 12 101470 40
2010-05-31 07:12 51°13.891 2°52.931 7.8 3 12 101460 40
2010-05-31 07:13 51°13.746 2°52.612 8.6 2 12 101470 40
2010-05-31 07:14 51°13.605 2°52.31 11.5 3 12 101460 40
2010-05-31 07:15 51°13.461 2°51.998 10 3 12 101460 41
2010-05-31 07:16 51°13.316 2°51.707 9.1 6 12 101480 41
2010-05-31 07:17 51°13.267 2°51.481 9 349 12 101480 40
2010-05-31 07:18 51°13.298 2°51.386 10.4 321 12 101490 40
2010-05-31 07:19 51°13.342 2°51.387 10.4 25 11.9 101480 40
2010-05-31 07:20 51°13.411 2°51.421 11.5 26 11.9 101470 40
2010-05-31 07:21 51°13.485 2°51.431 9.3 24 12 101470 42
2010-05-31 07:22 51°13.494 2°51.443 9.7 253 12 101500 40
2010-05-31 07:23 51°13.49 2°51.453 9.3 24 12 101500 41
2010-05-31 07:24 51°13.481 2°51.453 8.8 248 12 101490 41
2010-05-31 07:25 51°13.468 2°51.448 8.5 249 12 101500 40
2010-05-31 07:26 51°13.453 2°51.441 8.3 254 12 101510 40
2010-05-31 07:27 51°13.444 2°51.479 6.1 30 12.1 101510 40
2010-05-31 07:28 51°13.375 2°51.505 6.5 28 12.1 101520 40
2010-05-31 07:29 51°13.284 2°51.36 9 9 12 101500 41
2010-05-31 07:30 51°13.157 2°51.086 11.4 5 12 101490 42
2010-05-31 07:31 51°13.045 2°50.759 12.1 359 12 101490 41
2010-05-31 07:32 51°12.937 2°50.423 11.4 360 11.9 101500 41
2010-05-31 07:33 51°12.829 2°50.083 12.3 357 12 101500 41
2010-05-31 07:34 51°12.718 2°49.751 12.8 360 11.9 101490 40
2010-05-31 07:35 51°12.607 2°49.415 10.5 360 11.9 101510 41
2010-05-31 07:36 51°12.494 2°49.073 13.1 2 12 101500 41
2010-05-31 07:37 51°12.382 2°48.743 12.2 357 12 101510 42
2010-05-31 07:38 51°12.271 2°48.408 9.4 1 11.9 101500 41
2010-05-31 07:39 51°12.16 2°48.073 12.1 1 11.9 101490 41
2010-05-31 07:40 51°12.049 2°47.736 10 355 11.9 101510 42
2010-05-31 07:41 51°11.94 2°47.403 12.1 358 12 101520 42
2010-05-31 07:42 51°11.829 2°47.058 9.1 360 12 101520 42
2010-05-31 07:43 51°11.718 2°46.725 12.9 -999 11.9 101510 41
2010-05-31 07:44 51°11.608 2°46.381 14.2 1 12 101520 41
2010-05-31 07:45 51°11.498 2°46.044 12.6 358 11.9 101510 40
2010-05-31 07:46 51°11.387 2°45.712 12.5 359 11.9 101530 42
2010-05-31 07:47 51°11.275 2°45.366 9.9 355 11.9 101530 40
2010-05-31 07:48 51°11.168 2°45.03 13.2 357 11.9 101530 41
2010-05-31 07:49 51°11.058 2°44.696 12.6 359 11.9 101540 40
2010-05-31 07:50 51°10.948 2°44.362 13.3 358 11.9 101530 41
2010-05-31 07:51 51°10.839 2°44.028 12.9 358 11.9 101520 41
2010-05-31 07:52 51°10.731 2°43.695 13.8 1 11.9 101540 41
2010-05-31 07:53 51°10.624 2°43.363 11.3 1 11.9 101530 41
2010-05-31 07:54 51°10.455 2°43.232 4.1 34 11.9 101570 43
2010-05-31 07:55 51°10.33 2°43.14 10.5 8 11.9 101560 42
2010-05-31 07:56 51°10.335 2°42.971 11.4 329 11.9 101560 41
2010-05-31 07:57 51°10.367 2°42.928 9.9 32 11.9 101540 41
2010-05-31 07:58 51°10.363 2°42.92 8.4 245 11.9 101560 42
2010-05-31 07:59 51°10.352 2°42.91 9.4 251 11.9 101560 40
2010-05-31 08:00 51°10.336 2°42.896 9 252 11.9 101560 42
2010-05-31 08:01 51°10.318 2°42.875 8.4 253 12 101590 42
2010-05-31 08:02 51°10.295 2°42.854 6 265 11.9 101590 40
2010-05-31 08:03 51°10.274 2°42.831 6.1 262 11.9 101590 42
2010-05-31 08:04 51°10.271 2°42.86 9.2 254 11.8 101590 41
2010-05-31 08:05 51°10.33 2°42.978 9.2 248 11.9 101560 41
2010-05-31 08:06 51°10.429 2°43.175 10.1 22 11.9 101540 42
2010-05-31 08:07 51°10.543 2°43.413 11.8 20 11.8 101540 42
2010-05-31 08:08 51°10.648 2°43.665 10.4 243 11.9 101560 41
2010-05-31 08:09 51°10.748 2°43.924 10.7 23 11.9 101540 42
2010-05-31 08:10 51°10.852 2°44.191 9.5 24 11.9 101550 41
2010-05-31 08:11 51°10.952 2°44.469 10.6 244 11.8 101530 41
2010-05-31 08:12 51°11.044 2°44.743 9.5 24 11.9 101560 40
2010-05-31 08:13 51°11.141 2°45.019 11 24 11.9 101540 40
2010-05-31 08:14 51°11.245 2°45.295 9.9 23 11.9 101540 41
2010-05-31 08:15 51°11.347 2°45.561 11.2 237 11.9 101570 41
2010-05-31 08:16 51°11.441 2°45.841 11.9 20 11.9 101540 42
2010-05-31 08:17 51°11.533 2°46.108 10.2 237 11.9 101530 41
2010-05-31 08:18 51°11.625 2°46.387 9.8 27 11.9 101530 40
2010-05-31 08:19 51°11.714 2°46.658 10.5 25 11.9 101540 40
2010-05-31 08:20 51°11.806 2°46.942 11.8 26 11.9 101520 42
2010-05-31 08:21 51°11.897 2°47.214 9.4 29 11.9 101550 41
2010-05-31 08:22 51°11.99 2°47.496 10.6 235 11.9 101550 41
2010-05-31 08:23 51°12.084 2°47.767 10.2 23 11.9 101550 40
2010-05-31 08:24 51°12.181 2°48.045 11.8 237 11.9 101530 41
2010-05-31 08:25 51°12.27 2°48.318 13 23 11.9 101530 41
2010-05-31 08:26 51°12.364 2°48.594 12.4 23 11.9 101550 40
2010-05-31 08:27 51°12.459 2°48.869 12.7 27 11.9 101570 41
2010-05-31 08:28 51°12.549 2°49.137 11.1 24 11.9 101550 42
2010-05-31 08:29 51°12.638 2°49.422 13.5 20 11.9 101550 40
2010-05-31 08:30 51°12.726 2°49.694 13.6 22 12 101530 40
2010-05-31 08:31 51°12.815 2°49.969 13.7 23 11.9 101550 41
2010-05-31 08:32 51°12.913 2°50.24 12.6 21 12 101530 40
2010-05-31 08:33 51°13 2°50.503 14.2 24 12 101540 41
2010-05-31 08:34 51°13.091 2°50.772 10.5 27 11.9 101550 41
2010-05-31 08:35 51°13.177 2°51.04 11.6 239 12 101550 40
2010-05-31 08:36 51°13.266 2°51.306 13.8 26 12 101540 41
2010-05-31 08:37 51°13.356 2°51.566 12.8 27 11.9 101550 40
2010-05-31 08:38 51°13.45 2°51.834 12.5 19 12 101550 41
2010-05-31 08:39 51°13.543 2°52.1 10.6 23 11.9 101560 41
2010-05-31 08:40 51°13.638 2°52.361 12.6 21 12 101540 41
2010-05-31 08:41 51°13.735 2°52.633 12.5 23 12 101570 41
2010-05-31 08:42 51°13.829 2°52.895 13.3 22 12 101560 42
2010-05-31 08:43 51°13.928 2°53.165 11.4 26 12 101540 41
2010-05-31 08:44 51°14.028 2°53.422 11.4 22 12 101560 41
2010-05-31 08:45 51°14.156 2°53.657 14.8 27 12 101570 40
2010-05-31 08:46 51°14.303 2°53.856 14.6 32 12 101540 42
2010-05-31 08:47 51°14.48 2°53.963 15.2 322 12 101550 41
2010-05-31 08:48 51°14.679 2°53.874 15.4 329 11.9 101560 40
2010-05-31 08:49 51°14.868 2°53.742 15.9 328 11.9 101570 41
2010-05-31 08:50 51°15.059 2°53.617 16.3 326 11.9 101580 41
2010-05-31 08:51 51°15.248 2°53.5 15.4 328 11.9 101580 41
2010-05-31 08:52 51°15.446 2°53.369 14.8 325 11.8 101580 41
2010-05-31 08:53 51°15.638 2°53.246 14.4 327 11.9 101580 40
2010-05-31 08:54 51°15.834 2°53.122 14.4 329 11.9 101570 40
2010-05-31 08:55 51°16.021 2°52.999 15.2 328 11.9 101570 41
2010-05-31 08:56 51°16.211 2°52.877 14.5 326 11.8 101560 40
2010-05-31 08:57 51°16.401 2°52.755 17.8 329 11.8 101570 40
2010-05-31 08:58 51°16.594 2°52.645 13.6 327 11.8 101580 40
2010-05-31 08:59 51°16.786 2°52.554 13.4 323 11.9 101570 41
2010-05-31 09:00 51°16.976 2°52.489 15.3 323 11.9 101580 41
2010-05-31 09:01 51°17.173 2°52.422 14.2 325 12 101570 41
2010-05-31 09:02 51°17.364 2°52.357 13.7 325 12 101590 41
2010-05-31 09:03 51°17.564 2°52.315 15.2 323 12 101570 40
2010-05-31 09:04 51°17.755 2°52.324 15.1 316 11.9 101560 41
2010-05-31 09:05 51°17.939 2°52.413 14.3 316 11.9 101570 40
2010-05-31 09:06 51°18.104 2°52.543 13.9 38 11.9 101560 41
2010-05-31 09:07 51°18.237 2°52.768 10.8 31 11.9 101570 40
2010-05-31 09:08 51°18.295 2°53.07 12 242 11.9 101590 41
2010-05-31 09:09 51°18.356 2°53.365 11 239 11.9 101600 40
2010-05-31 09:10 51°18.431 2°53.66 10.8 242 11.9 101580 41
2010-05-31 09:11 51°18.507 2°53.94 12.7 241 11.9 101570 40
2010-05-31 09:12 51°18.59 2°54.225 10.6 237 11.9 101590 40
2010-05-31 09:13 51°18.671 2°54.5 12.3 242 11.9 101570 41
2010-05-31 09:14 51°18.76 2°54.778 11.6 240 11.9 101590 42
2010-05-31 09:15 51°18.845 2°55.054 11.1 237 11.9 101590 41
2010-05-31 09:16 51°18.927 2°55.331 12.7 244 11.9 101580 42
2010-05-31 09:17 51°19.004 2°55.606 10.6 242 11.9 101590 42
2010-05-31 09:18 51°19.084 2°55.881 11.1 241 11.9 101590 42
2010-05-31 09:19 51°19.165 2°56.16 11.3 243 11.9 101580 42
2010-05-31 09:20 51°19.246 2°56.427 10.6 241 12 101580 40
2010-05-31 09:21 51°19.33 2°56.705 10.7 240 11.9 101580 41
2010-05-31 09:22 51°19.412 2°56.969 10.5 241 11.9 101580 41
2010-05-31 09:23 51°19.496 2°57.247 13.4 243 11.9 101580 41
2010-05-31 09:24 51°19.582 2°57.516 10.7 240 11.9 101600 40
2010-05-31 09:25 51°19.664 2°57.788 10.9 242 11.9 101620 40
2010-05-31 09:26 51°19.75 2°58.061 11.7 242 11.9 101590 42
2010-05-31 09:27 51°19.829 2°58.334 10.1 243 12 101610 40
2010-05-31 09:28 51°19.914 2°58.611 10.8 237 11.9 101600 40
2010-05-31 09:29 51°19.995 2°58.878 11.5 238 11.9 101580 42
2010-05-31 09:30 51°20.081 2°59.154 12.9 244 11.9 101590 41
2010-05-31 09:31 51°20.164 2°59.417 12.3 239 12 101600 40
2010-05-31 09:32 51°20.249 2°59.692 11.8 32 12 101590 41
2010-05-31 09:33 51°20.331 2°59.956 11.3 239 12 101580 42
2010-05-31 09:34 51°20.416 3°0.222 12 238 11.9 101580 42
2010-05-31 09:35 51°20.497 3°0.487 12.3 237 11.9 101570 42
2010-05-31 09:36 51°20.573 3°0.753 11.1 32 11.9 101580 40
2010-05-31 09:37 51°20.656 3°1.026 13 242 11.9 101590 41
2010-05-31 09:38 51°20.732 3°1.298 10.6 242 11.9 101590 41
2010-05-31 09:39 51°20.777 3°1.586 11.9 247 11.9 101590 40
2010-05-31 09:40 51°20.821 3°1.879 10.3 240 11.9 101610 40
2010-05-31 09:41 51°20.866 3°2.172 9.6 246 11.9 101610 42
2010-05-31 09:42 51°20.908 3°2.46 9.1 242 11.9 101590 40
2010-05-31 09:43 51°20.954 3°2.751 9.6 242 11.9 101610 41
2010-05-31 09:44 51°21.04 3°3.014 11.8 34 11.9 101600 41
2010-05-31 09:45 51°21.134 3°3.262 12.7 239 11.9 101580 41
2010-05-31 09:46 51°21.215 3°3.531 12 240 11.9 101590 41
2010-05-31 09:47 51°21.29 3°3.795 11.2 240 11.9 101590 41
2010-05-31 09:48 51°21.366 3°4.07 10.2 236 11.9 101590 41
2010-05-31 09:49 51°21.44 3°4.339 12.3 32 11.9 101580 40
2010-05-31 09:50 51°21.518 3°4.604 12.9 23 11.9 101580 40
2010-05-31 09:51 51°21.598 3°4.874 11.6 25 11.9 101600 42
2010-05-31 09:52 51°21.675 3°5.145 8.6 22 11.9 101580 41
2010-05-31 09:53 51°21.75 3°5.423 12.9 21 12 101590 41
2010-05-31 09:54 51°21.811 3°5.7 9.9 27 12 101600 41
2010-05-31 09:55 51°21.872 3°5.988 10.2 22 12 101620 42
2010-05-31 09:56 51°21.933 3°6.269 10.1 25 12 101580 40
2010-05-31 09:57 51°21.981 3°6.563 10.7 26 12 101590 42
2010-05-31 09:58 51°22.024 3°6.867 8.7 27 12 101600 40
2010-05-31 09:59 51°22.065 3°7.159 11.3 27 12 101590 41
2010-05-31 10:00 51°22.108 3°7.452 9.2 23 12 101630 41
2010-05-31 10:01 51°22.152 3°7.749 10.5 23 12 101610 42
2010-05-31 10:02 51°22.197 3°8.042 10 23 12 101580 41
2010-05-31 10:03 51°22.239 3°8.34 9.8 20 12 101610 41
2010-05-31 10:04 51°22.289 3°8.639 12.4 28 12 101610 40
2010-05-31 10:05 51°22.346 3°8.922 12.4 20 12 101620 41
2010-05-31 10:06 51°22.41 3°9.217 11.1 20 12 101590 41
2010-05-31 10:07 51°22.478 3°9.501 10.9 23 12 101600 40
2010-05-31 10:08 51°22.551 3°9.79 9.3 22 12 101610 41
2010-05-31 10:09 51°22.624 3°10.07 9.9 27 12 101600 41
2010-05-31 10:10 51°22.697 3°10.359 12 25 12 101600 42
2010-05-31 10:11 51°22.736 3°10.66 9.9 248 12 101600 42
2010-05-31 10:12 51°22.728 3°10.971 8.2 251 12 101630 42
2010-05-31 10:13 51°22.666 3°11.15 4.6 21 12 101640 39
2010-05-31 10:14 51°22.568 3°11.189 6 23 12.2 101650 43
2010-05-31 10:15 51°22.458 3°11.206 6.9 35 12.2 101640 40
2010-05-31 10:16 51°22.384 3°11.159 4.9 21 12.1 101630 42
2010-05-31 10:17 51°22.36 3°11.13 7.5 21 12.1 101660 41
2010-05-31 10:18 51°22.339 3°11.111 5.6 264 12 101670 40
2010-05-31 10:19 51°22.32 3°11.11 7.3 263 12.1 101640 41
2010-05-31 10:20 51°22.304 3°11.098 6.6 261 12.1 101640 42
2010-05-31 10:21 51°22.287 3°11.084 10.9 258 12.1 101650 40
2010-05-31 10:22 51°22.268 3°11.068 9.1 250 12.1 101640 40
2010-05-31 10:23 51°22.257 3°11.063 8.8 23 12.1 101630 42
2010-05-31 10:24 51°22.284 3°11.053 10.2 333 12 101620 40
2010-05-31 10:25 51°22.295 3°10.937 10.1 355 12 101620 42
2010-05-31 10:26 51°22.298 3°10.647 11.2 353 12 101620 41
2010-05-31 10:27 51°22.293 3°10.283 10.4 353 11.9 101600 40
2010-05-31 10:28 51°22.27 3°9.897 12.2 356 11.9 101610 40
2010-05-31 10:29 51°22.245 3°9.522 11.2 352 11.8 101620 41
2010-05-31 10:30 51°22.222 3°9.145 12.1 356 11.8 101630 41
2010-05-31 10:31 51°22.199 3°8.763 10.8 354 11.8 101610 40
2010-05-31 10:32 51°22.177 3°8.398 11.9 351 11.8 101630 41
2010-05-31 10:33 51°22.153 3°8.022 12.2 356 11.8 101630 41
2010-05-31 10:34 51°22.131 3°7.656 14.6 354 11.8 101630 40
2010-05-31 10:35 51°22.108 3°7.284 15 354 11.9 101630 41
2010-05-31 10:36 51°22.086 3°6.911 12.7 354 11.8 101640 42
2010-05-31 10:37 51°22.064 3°6.532 14.6 353 11.8 101630 41
2010-05-31 10:38 51°22.043 3°6.164 12 354 11.8 101640 40
2010-05-31 10:39 51°22.022 3°5.79 11.6 354 11.8 101640 41
2010-05-31 10:40 51°21.999 3°5.412 12.3 353 11.8 101640 40
2010-05-31 10:41 51°21.978 3°5.049 14.2 356 11.8 101640 41
2010-05-31 10:42 51°21.956 3°4.677 14.5 356 11.8 101650 40
2010-05-31 10:43 51°21.933 3°4.299 14.4 353 11.8 101640 40
2010-05-31 10:44 51°21.91 3°3.914 10.5 352 11.8 101640 41
2010-05-31 10:45 51°21.885 3°3.545 13.8 354 11.8 101630 41
2010-05-31 10:46 51°21.863 3°3.171 13.9 353 11.8 101630 41
2010-05-31 10:47 51°21.838 3°2.795 12.2 353 11.8 101630 41
2010-05-31 10:48 51°21.812 3°2.421 13.8 357 11.8 101640 41
2010-05-31 10:49 51°21.771 3°2.051 13.2 356 11.8 101660 41
2010-05-31 10:50 51°21.687 3°1.69 10.4 1 11.8 101660 42
2010-05-31 10:51 51°21.599 3°1.327 10.5 2 11.8 101660 41
2010-05-31 10:52 51°21.515 3°0.974 9.8 359 11.9 101660 42
2010-05-31 10:53 51°21.43 3°0.61 9.9 355 11.9 101670 42
2010-05-31 10:54 51°21.339 3°0.261 9.3 360 11.9 101670 41
2010-05-31 10:55 51°21.221 2°59.92 9.6 360 11.9 101690 40
2010-05-31 10:56 51°21.108 2°59.576 9 5 11.9 101680 40
2010-05-31 10:57 51°20.987 2°59.242 8.4 -999 11.8 101680 42
2010-05-31 10:58 51°20.858 2°58.919 8.2 3 11.9 101680 39
2010-05-31 10:59 51°20.729 2°58.597 7.9 2 11.9 101680 42
2010-05-31 11:00 51°20.598 2°58.267 8.1 3 11.9 101680 40
2010-05-31 11:01 51°20.467 2°57.946 9.5 2 11.9 101680 40
2010-05-31 11:02 51°20.337 2°57.622 8.1 3 11.9 101680 41
2010-05-31 11:03 51°20.209 2°57.302 7 2 11.9 101680 41
2010-05-31 11:04 51°20.077 2°56.971 8.8 7 11.8 101690 41
2010-05-31 11:05 51°19.95 2°56.648 9.4 3 11.9 101690 43
2010-05-31 11:06 51°19.817 2°56.321 8.1 3 11.9 101700 42
2010-05-31 11:07 51°19.691 2°55.999 8.5 355 11.9 101690 41
2010-05-31 11:08 51°19.56 2°55.665 8 358 11.9 101700 40
2010-05-31 11:09 51°19.43 2°55.337 9.1 2 11.9 101700 41
2010-05-31 11:10 51°19.302 2°55.015 9.2 1 11.9 101690 40
2010-05-31 11:11 51°19.204 2°54.658 10.2 356 11.9 101690 40
2010-05-31 11:12 51°19.137 2°54.294 11.3 356 11.8 101680 41
2010-05-31 11:13 51°19.072 2°53.916 11.4 355 11.9 101690 41
2010-05-31 11:14 51°18.974 2°53.577 8.7 358 11.8 101690 40
2010-05-31 11:15 51°18.831 2°53.269 6.2 1 11.9 101700 42
2010-05-31 11:16 51°18.663 2°52.99 8.1 -999 11.9 101700 40
2010-05-31 11:17 51°18.498 2°52.705 8.3 6 11.9 101710 40
2010-05-31 11:18 51°18.324 2°52.437 6.6 11 11.9 101710 43
2010-05-31 11:19 51°18.105 2°52.289 4.3 16 11.9 101720 39
2010-05-31 11:20 51°17.866 2°52.255 1.1 34 11.9 101730 40
2010-05-31 11:21 51°17.634 2°52.266 1.8 30 11.9 101730 43
2010-05-31 11:22 51°17.392 2°52.278 2.4 22 11.9 101730 41
2010-05-31 11:23 51°17.162 2°52.328 0.1 248 11.9 101730 44
2010-05-31 11:24 51°16.941 2°52.454 1.6 24 12 101740 41
2010-05-31 11:25 51°16.734 2°52.594 1.5 21 12 101740 40
2010-05-31 11:26 51°16.528 2°52.753 0.1 270 12 101740 41
2010-05-31 11:27 51°16.354 2°52.861 2.5 25 12.1 101740 43
2010-05-31 11:28 51°16.236 2°52.918 1.8 23 12.2 101740 39
2010-05-31 11:29 51°16.149 2°52.992 4.9 23 12.2 101740 40
2010-05-31 11:30 51°16.008 2°53.148 3.4 269 12.2 101740 41
2010-05-31 11:31 51°15.827 2°53.34 0.7 255 12.2 101740 42
2010-05-31 11:32 51°15.642 2°53.534 1.6 26 12.3 101740 40
2010-05-31 11:33 51°15.453 2°53.719 0.7 265 12.3 101740 43
2010-05-31 11:34 51°15.298 2°53.964 3.1 260 12.3 101740 39
2010-05-31 11:35 51°15.152 2°54.225 2 269 12.3 101740 41
2010-05-31 11:36 51°14.981 2°54.463 3.1 261 12.3 101750 42
2010-05-31 11:37 51°14.8 2°54.668 1 265 12.3 101740 44
2010-05-31 11:38 51°14.613 2°54.881 0.7 264 12.3 101740 41
2010-05-31 11:39 51°14.436 2°55.085 1.2 263 12.3 101750 38
2010-05-31 11:40 51°14.262 2°55.291 -999 24 12.3 101750 41
2010-05-31 11:41 51°14.12 2°55.415 2.3 23 12.3 101750 39
2010-05-31 11:42 51°13.993 2°55.508 1.8 22 12.5 101750 39
2010-05-31 11:43 51°13.884 2°55.588 0.7 20 12.7 101750 39
2010-05-31 11:44 51°13.779 2°55.68 4 29 12.7 101750 39
2010-05-31 11:45 51°13.711 2°55.786 4.1 20 12.5 101750 39
2010-05-31 11:46 51°13.677 2°55.89 3.5 269 12.5 101750 39
2010-05-31 11:47 51°13.662 2°55.957 4.3 27 12.4 101750 39